createdAt,value
2018-06-23T00:00:57.420Z,12.96
2018-06-23T00:01:57.389Z,12.96
2018-06-23T00:02:57.361Z,12.91
2018-06-23T00:03:57.347Z,12.98
2018-06-23T00:04:57.307Z,12.95
2018-06-23T00:05:57.288Z,13.04
2018-06-23T00:06:57.253Z,12.96
2018-06-23T00:07:57.233Z,12.87
2018-06-23T00:08:57.203Z,12.95
2018-06-23T00:09:57.175Z,12.96
2018-06-23T00:10:57.147Z,12.96
2018-06-23T00:11:57.121Z,12.99
2018-06-23T00:12:57.098Z,12.88
2018-06-23T00:13:57.066Z,12.96
2018-06-23T00:14:57.045Z,12.92
2018-06-23T00:15:57.019Z,12.91
2018-06-23T00:16:56.988Z,12.88
2018-06-23T00:17:56.971Z,12.92
2018-06-23T00:18:56.934Z,12.89
2018-06-23T00:19:56.911Z,12.98
2018-06-23T00:20:56.883Z,12.95
2018-06-23T00:21:56.855Z,12.99
2018-06-23T00:22:56.830Z,12.85
2018-06-23T00:23:56.801Z,12.91
2018-06-23T00:24:56.776Z,12.84
2018-06-23T00:25:56.755Z,12.87
2018-06-23T00:26:56.723Z,12.91
2018-06-23T00:27:56.698Z,12.85
2018-06-23T00:28:56.670Z,12.80
2018-06-23T00:29:56.643Z,12.76
2018-06-23T00:30:56.621Z,12.84
2018-06-23T00:31:56.592Z,12.77
2018-06-23T00:32:56.564Z,12.79
2018-06-23T00:33:56.537Z,12.80
2018-06-23T00:34:56.511Z,12.87
2018-06-23T00:35:56.483Z,12.79
2018-06-23T00:36:56.458Z,12.74
2018-06-23T00:37:56.429Z,12.74
2018-06-23T00:38:56.403Z,12.77
2018-06-23T00:39:56.379Z,12.76
2018-06-23T00:40:56.360Z,12.77
2018-06-23T00:41:56.326Z,12.88
2018-06-23T00:42:56.300Z,12.88
2018-06-23T00:43:56.271Z,12.89
2018-06-23T00:44:56.244Z,12.88
2018-06-23T00:45:56.218Z,12.87
2018-06-23T00:46:56.191Z,13.03
2018-06-23T00:47:56.164Z,12.98
2018-06-23T00:48:56.138Z,12.99
2018-06-23T00:49:56.111Z,12.99
2018-06-23T00:50:56.085Z,13.01
2018-06-23T00:51:56.060Z,12.95
2018-06-23T00:52:56.036Z,13.01
2018-06-23T00:53:56.008Z,13.16
2018-06-23T00:54:55.981Z,12.98
2018-06-23T00:55:55.953Z,12.96
2018-06-23T00:56:55.928Z,12.92
2018-06-23T00:57:55.900Z,12.80
2018-06-23T00:58:55.874Z,12.76
2018-06-23T00:59:55.849Z,12.88
2018-06-23T01:00:55.825Z,12.79
2018-06-23T01:01:55.800Z,12.77
2018-06-23T01:02:55.769Z,12.76
2018-06-23T01:03:55.745Z,12.73
2018-06-23T01:04:55.717Z,12.69
2018-06-23T01:05:55.693Z,12.71
2018-06-23T01:06:55.665Z,12.73
2018-06-23T01:07:55.638Z,12.71
2018-06-23T01:08:55.613Z,12.73
2018-06-23T01:09:55.586Z,12.66
2018-06-23T01:10:55.561Z,12.63
2018-06-23T01:11:55.532Z,12.73
2018-06-23T01:12:55.505Z,12.76
2018-06-23T01:13:55.484Z,12.69
2018-06-23T01:14:55.454Z,12.70
2018-06-23T01:15:55.425Z,12.54
2018-06-23T01:16:55.399Z,12.56
2018-06-23T01:17:55.372Z,12.67
2018-06-23T01:18:55.349Z,12.71
2018-06-23T01:19:55.320Z,12.67
2018-06-23T01:20:55.293Z,12.61
2018-06-23T01:21:55.267Z,12.67
2018-06-23T01:22:55.242Z,12.63
2018-06-23T01:23:55.215Z,12.62
2018-06-23T01:24:55.193Z,12.54
2018-06-23T01:25:55.163Z,12.43
2018-06-23T01:26:55.142Z,12.36
2018-06-23T01:27:55.111Z,12.25
2018-06-23T01:28:55.083Z,12.05
2018-06-23T01:29:55.055Z,12.12
2018-06-23T01:30:55.030Z,12.12
2018-06-23T01:31:55.007Z,12.04
2018-06-23T01:32:54.979Z,12.11
2018-06-23T01:33:54.959Z,12.07
2018-06-23T01:34:55.125Z,12.16
2018-06-23T01:35:54.896Z,12.21
2018-06-23T01:36:54.870Z,12.31
2018-06-23T01:37:55.045Z,12.30
2018-06-23T01:38:54.827Z,12.37
2018-06-23T01:39:54.792Z,12.46
2018-06-23T01:40:54.763Z,12.48
2018-06-23T01:41:54.746Z,12.55
2018-06-23T01:42:54.712Z,12.58
2018-06-23T01:43:54.680Z,12.58
2018-06-23T01:44:54.658Z,12.62
2018-06-23T01:45:54.628Z,12.55
2018-06-23T01:46:54.605Z,12.59
2018-06-23T01:47:54.577Z,12.70
2018-06-23T01:48:54.550Z,12.69
2018-06-23T01:49:54.523Z,12.62
2018-06-23T01:50:54.497Z,12.73
2018-06-23T01:51:54.470Z,12.69
2018-06-23T01:52:54.444Z,12.77
2018-06-23T01:53:54.416Z,12.77
2018-06-23T01:54:54.396Z,12.73
2018-06-23T01:55:54.361Z,12.74
2018-06-23T01:56:54.346Z,12.80
2018-06-23T01:57:54.307Z,12.87
2018-06-23T01:58:54.282Z,12.88
2018-06-23T01:59:54.257Z,12.88
2018-06-23T02:00:54.230Z,12.94
2018-06-23T02:01:54.203Z,12.89
2018-06-23T02:02:54.176Z,12.89
2018-06-23T02:03:54.148Z,12.85
2018-06-23T02:04:54.121Z,12.84
2018-06-23T02:05:54.094Z,12.76
2018-06-23T02:06:54.074Z,12.62
2018-06-23T02:07:54.042Z,12.54
2018-06-23T02:08:54.017Z,12.55
2018-06-23T02:09:53.988Z,12.43
2018-06-23T02:10:53.962Z,12.40
2018-06-23T02:11:53.938Z,12.40
2018-06-23T02:12:53.911Z,12.36
2018-06-23T02:13:53.884Z,12.36
2018-06-23T02:14:53.858Z,12.36
2018-06-23T02:15:53.829Z,12.40
2018-06-23T02:16:53.802Z,12.41
2018-06-23T02:17:53.775Z,12.43
2018-06-23T02:18:53.749Z,12.38
2018-06-23T02:19:53.725Z,12.44
2018-06-23T02:20:53.697Z,12.43
2018-06-23T02:21:53.672Z,12.44
2018-06-23T02:22:53.646Z,12.56
2018-06-23T02:23:53.617Z,12.56
2018-06-23T02:24:53.592Z,12.52
2018-06-23T02:25:53.596Z,12.55
2018-06-23T02:26:53.539Z,12.52
2018-06-23T02:27:53.512Z,12.55
2018-06-23T02:28:53.483Z,12.56
2018-06-23T02:29:53.454Z,12.62
2018-06-23T02:30:53.429Z,12.55
2018-06-23T02:31:53.404Z,12.62
2018-06-23T02:32:53.378Z,12.56
2018-06-23T02:33:53.351Z,12.58
2018-06-23T02:34:53.325Z,12.66
2018-06-23T02:35:53.296Z,12.67
2018-06-23T02:36:53.272Z,12.70
2018-06-23T02:37:53.242Z,12.70
2018-06-23T02:38:53.219Z,12.77
2018-06-23T02:39:53.195Z,12.69
2018-06-23T02:40:53.163Z,12.74
2018-06-23T02:41:53.136Z,12.77
2018-06-23T02:42:53.115Z,12.70
2018-06-23T02:43:53.087Z,12.81
2018-06-23T02:44:53.059Z,12.70
2018-06-23T02:45:53.031Z,12.79
2018-06-23T02:46:53.006Z,12.80
2018-06-23T02:47:52.976Z,12.84
2018-06-23T02:48:52.949Z,12.71
2018-06-23T02:49:52.927Z,12.73
2018-06-23T02:50:52.900Z,12.80
2018-06-23T02:51:52.878Z,12.77
2018-06-23T02:52:52.846Z,12.71
2018-06-23T02:53:52.820Z,12.76
2018-06-23T02:54:52.793Z,12.70
2018-06-23T02:55:52.765Z,12.77
2018-06-23T02:56:52.739Z,12.79
2018-06-23T02:57:52.711Z,12.77
2018-06-23T02:58:52.684Z,12.79
2018-06-23T02:59:52.658Z,12.80
2018-06-23T03:00:52.632Z,12.85
2018-06-23T03:01:52.603Z,12.76
2018-06-23T03:02:52.581Z,12.89
2018-06-23T03:03:52.552Z,12.92
2018-06-23T03:04:52.527Z,12.92
2018-06-23T03:05:52.502Z,12.92
2018-06-23T03:06:52.473Z,12.98
2018-06-23T03:07:52.444Z,12.98
2018-06-23T03:08:52.418Z,12.99
2018-06-23T03:09:52.391Z,13.03
2018-06-23T03:10:52.365Z,13.03
2018-06-23T03:11:52.339Z,13.09
2018-06-23T03:12:52.317Z,13.04
2018-06-23T03:13:52.285Z,13.09
2018-06-23T03:14:52.258Z,13.07
2018-06-23T03:15:52.234Z,13.14
2018-06-23T03:16:52.207Z,13.07
2018-06-23T03:17:52.184Z,13.06
2018-06-23T03:18:52.154Z,13.06
2018-06-23T03:19:52.130Z,13.19
2018-06-23T03:20:52.302Z,13.16
2018-06-23T03:21:52.073Z,13.12
2018-06-23T03:22:52.049Z,13.12
2018-06-23T03:23:52.025Z,13.07
2018-06-23T03:24:51.994Z,13.07
2018-06-23T03:25:51.967Z,13.07
2018-06-23T03:26:51.942Z,13.09
2018-06-23T03:27:51.917Z,13.04
2018-06-23T03:28:51.890Z,13.10
2018-06-23T03:29:51.867Z,13.21
2018-06-23T03:30:51.836Z,13.10
2018-06-23T03:31:51.808Z,13.01
2018-06-23T03:32:51.792Z,13.06
2018-06-23T03:33:51.753Z,13.09
2018-06-23T03:34:51.728Z,13.21
2018-06-23T03:35:51.704Z,13.12
2018-06-23T03:36:51.681Z,13.21
2018-06-23T03:37:51.651Z,13.17
2018-06-23T03:38:51.628Z,13.17
2018-06-23T03:39:51.598Z,13.28
2018-06-23T03:40:51.569Z,13.25
2018-06-23T03:41:51.543Z,13.27
2018-06-23T03:42:51.516Z,13.29
2018-06-23T03:43:51.564Z,13.25
2018-06-23T03:44:51.465Z,13.28
2018-06-23T03:45:51.443Z,13.22
2018-06-23T03:46:51.415Z,13.31
2018-06-23T03:47:51.389Z,13.35
2018-06-23T03:48:51.359Z,13.31
2018-06-23T03:49:51.332Z,13.39
2018-06-23T03:50:51.304Z,13.31
2018-06-23T03:51:51.282Z,13.41
2018-06-23T03:52:51.259Z,13.39
2018-06-23T03:53:51.230Z,13.44
2018-06-23T03:54:51.203Z,13.44
2018-06-23T03:55:51.175Z,13.51
2018-06-23T03:56:51.148Z,13.48
2018-06-23T03:57:51.123Z,13.41
2018-06-23T03:58:51.097Z,13.43
2018-06-23T03:59:51.069Z,13.46
2018-06-23T04:00:51.046Z,13.47
2018-06-23T04:01:51.022Z,13.43
2018-06-23T04:02:50.991Z,13.36
2018-06-23T04:03:50.965Z,13.41
2018-06-23T04:04:50.940Z,13.41
2018-06-23T04:05:50.915Z,13.35
2018-06-23T04:06:50.886Z,13.39
2018-06-23T04:07:50.861Z,13.38
2018-06-23T04:08:50.832Z,13.31
2018-06-23T04:09:50.804Z,13.25
2018-06-23T04:10:50.779Z,13.36
2018-06-23T04:11:50.755Z,13.32
2018-06-23T04:12:50.736Z,13.29
2018-06-23T04:13:50.702Z,13.35
2018-06-23T04:14:50.677Z,13.29
2018-06-23T04:15:50.650Z,13.12
2018-06-23T04:16:50.644Z,13.16
2018-06-23T04:17:50.596Z,13.19
2018-06-23T04:18:50.574Z,13.14
2018-06-23T04:19:50.542Z,13.12
2018-06-23T04:20:50.516Z,13.13
2018-06-23T04:21:50.489Z,13.28
2018-06-23T04:22:50.466Z,13.16
2018-06-23T04:23:50.439Z,13.16
2018-06-23T04:24:50.419Z,13.12
2018-06-23T04:25:50.386Z,13.16
2018-06-23T04:26:50.362Z,13.24
2018-06-23T04:27:50.331Z,13.17
2018-06-23T04:28:50.307Z,13.22
2018-06-23T04:29:50.282Z,13.22
2018-06-23T04:30:50.256Z,13.19
2018-06-23T04:31:50.231Z,13.12
2018-06-23T04:32:50.199Z,13.17
2018-06-23T04:33:50.173Z,13.27
2018-06-23T04:34:50.146Z,13.28
2018-06-23T04:35:50.124Z,13.32
2018-06-23T04:36:50.096Z,13.31
2018-06-23T04:37:50.070Z,13.28
2018-06-23T04:38:50.049Z,13.36
2018-06-23T04:39:50.018Z,13.28
2018-06-23T04:40:49.995Z,13.31
2018-06-23T04:41:49.961Z,13.41
2018-06-23T04:42:49.941Z,13.41
2018-06-23T04:43:49.915Z,13.41
2018-06-23T04:44:49.885Z,13.46
2018-06-23T04:45:49.861Z,13.43
2018-06-23T04:46:49.839Z,13.48
2018-06-23T04:47:49.806Z,13.48
2018-06-23T04:48:49.780Z,13.53
2018-06-23T04:49:49.757Z,13.59
2018-06-23T04:50:49.726Z,13.55
2018-06-23T04:51:49.699Z,13.61
2018-06-23T04:52:49.672Z,13.57
2018-06-23T04:53:49.645Z,13.62
2018-06-23T04:54:49.628Z,13.73
2018-06-23T04:55:49.595Z,13.71
2018-06-23T04:56:49.571Z,13.66
2018-06-23T04:57:49.544Z,13.62
2018-06-23T04:58:49.719Z,13.63
2018-06-23T04:59:49.491Z,13.65
2018-06-23T05:00:49.463Z,13.59
2018-06-23T05:01:49.437Z,13.59
2018-06-23T05:02:49.411Z,13.68
2018-06-23T05:03:49.390Z,13.63
2018-06-23T05:04:49.370Z,13.59
2018-06-23T05:05:49.337Z,13.59
2018-06-23T05:06:49.307Z,13.55
2018-06-23T05:07:49.284Z,13.59
2018-06-23T05:08:49.257Z,13.65
2018-06-23T05:09:49.232Z,13.65
2018-06-23T05:10:49.206Z,13.54
2018-06-23T05:11:49.429Z,13.53
2018-06-23T05:12:49.152Z,13.61
2018-06-23T05:13:49.130Z,13.73
2018-06-23T05:14:49.100Z,13.71
2018-06-23T05:15:49.078Z,13.62
2018-06-23T05:16:49.050Z,13.73
2018-06-23T05:17:49.023Z,13.73
2018-06-23T05:18:48.999Z,13.94
2018-06-23T05:19:48.972Z,13.99
2018-06-23T05:20:48.949Z,13.99
2018-06-23T05:21:48.924Z,14.02
2018-06-23T05:22:49.501Z,13.91
2018-06-23T05:23:48.869Z,14.05
2018-06-23T05:24:48.843Z,14.02
2018-06-23T05:25:49.019Z,13.91
2018-06-23T05:26:48.793Z,13.96
2018-06-23T05:27:48.772Z,14.02
2018-06-23T05:28:48.744Z,14.01
2018-06-23T05:29:48.719Z,14.06
2018-06-23T05:30:48.896Z,14.09
2018-06-23T05:31:48.921Z,14.12
2018-06-23T05:32:48.642Z,14.05
2018-06-23T05:33:48.622Z,14.02
2018-06-23T05:34:48.592Z,13.98
2018-06-23T05:35:48.566Z,13.84
2018-06-23T05:36:48.543Z,13.69
2018-06-23T05:37:48.552Z,13.63
2018-06-23T05:38:48.491Z,13.76
2018-06-23T05:39:48.470Z,13.68
2018-06-23T05:40:48.444Z,13.72
2018-06-23T05:41:48.425Z,13.73
2018-06-23T05:42:48.395Z,13.71
2018-06-23T05:43:48.367Z,13.73
2018-06-23T05:44:48.371Z,13.69
2018-06-23T05:45:48.318Z,13.66
2018-06-23T05:46:48.292Z,13.66
2018-06-23T05:47:48.270Z,13.83
2018-06-23T05:48:48.244Z,13.81
2018-06-23T05:49:48.219Z,13.91
2018-06-23T05:50:48.195Z,13.84
2018-06-23T05:51:48.167Z,13.75
2018-06-23T05:52:48.142Z,13.90
2018-06-23T05:53:48.117Z,14.01
2018-06-23T05:54:48.294Z,14.20
2018-06-23T05:55:48.070Z,14.38
2018-06-23T05:56:48.052Z,14.35
2018-06-23T05:57:48.019Z,14.30
2018-06-23T05:58:47.993Z,14.31
2018-06-23T05:59:47.970Z,14.52
2018-06-23T06:00:48.006Z,14.48
2018-06-23T06:01:47.918Z,14.48
2018-06-23T06:02:47.917Z,14.57
2018-06-23T06:03:47.870Z,14.53
2018-06-23T06:04:47.847Z,14.52
2018-06-23T06:05:47.829Z,14.29
2018-06-23T06:06:47.797Z,14.35
2018-06-23T06:07:47.776Z,14.38
2018-06-23T06:08:47.750Z,14.41
2018-06-23T06:09:47.724Z,14.49
2018-06-23T06:10:47.701Z,14.85
2018-06-23T06:11:47.704Z,15.23
2018-06-23T06:12:47.652Z,14.80
2018-06-23T06:13:47.626Z,14.61
2018-06-23T06:14:47.601Z,14.85
2018-06-23T06:15:47.610Z,14.85
2018-06-23T06:16:47.557Z,14.82
2018-06-23T06:17:47.533Z,14.74
2018-06-23T06:18:47.510Z,14.66
2018-06-23T06:19:47.483Z,14.67
2018-06-23T06:20:47.461Z,14.72
2018-06-23T06:21:47.436Z,14.75
2018-06-23T06:22:47.615Z,14.82
2018-06-23T06:23:47.606Z,14.85
2018-06-23T06:24:47.366Z,14.71
2018-06-23T06:25:47.343Z,14.80
2018-06-23T06:26:47.319Z,14.79
2018-06-23T06:27:47.297Z,14.85
2018-06-23T06:28:47.276Z,14.71
2018-06-23T06:29:47.251Z,14.67
2018-06-23T06:30:47.237Z,14.83
2018-06-23T06:31:47.203Z,14.71
2018-06-23T06:32:47.182Z,14.57
2018-06-23T06:33:47.156Z,14.64
2018-06-23T06:34:47.137Z,14.63
2018-06-23T06:35:47.112Z,14.83
2018-06-23T06:36:47.088Z,14.87
2018-06-23T06:37:47.063Z,14.82
2018-06-23T06:38:47.042Z,14.97
2018-06-23T06:39:47.018Z,15.05
2018-06-23T06:40:46.992Z,14.97
2018-06-23T06:41:46.974Z,15.05
2018-06-23T06:42:46.948Z,15.27
2018-06-23T06:43:46.922Z,15.58
2018-06-23T06:44:46.908Z,15.55
2018-06-23T06:45:46.879Z,15.44
2018-06-23T06:46:46.852Z,15.09
2018-06-23T06:47:46.835Z,14.91
2018-06-23T06:48:46.808Z,14.95
2018-06-23T06:49:46.784Z,15.22
2018-06-23T06:50:47.027Z,15.25
2018-06-23T06:51:46.738Z,15.23
2018-06-23T06:52:46.717Z,15.22
2018-06-23T06:53:46.691Z,15.20
2018-06-23T06:54:46.669Z,14.87
2018-06-23T06:55:46.648Z,14.83
2018-06-23T06:58:11.131Z,14.97
2018-06-23T06:59:11.109Z,14.95
2018-06-23T07:00:10.885Z,14.90
2018-06-23T07:01:10.860Z,14.90
2018-06-23T07:02:10.838Z,14.93
2018-06-23T07:03:10.811Z,14.93
2018-06-23T07:04:10.803Z,15.22
2018-06-23T07:05:10.768Z,15.46
2018-06-23T07:06:10.745Z,15.55
2018-06-23T07:07:10.926Z,15.18
2018-06-23T07:08:10.698Z,15.20
2018-06-23T07:09:10.674Z,15.12
2018-06-23T07:10:10.651Z,14.94
2018-06-23T07:11:10.627Z,14.91
2018-06-23T07:12:10.608Z,14.98
2018-06-23T07:13:10.583Z,15.22
2018-06-23T07:14:10.559Z,15.20
2018-06-23T07:15:10.535Z,15.40
2018-06-23T07:16:10.515Z,15.34
2018-06-23T07:17:10.694Z,15.53
2018-06-23T07:18:10.470Z,15.76
2018-06-23T07:19:10.446Z,15.67
2018-06-23T07:20:10.422Z,15.58
2018-06-23T07:21:10.398Z,15.70
2018-06-23T07:22:10.375Z,15.70
2018-06-23T07:23:10.352Z,15.73
2018-06-23T07:24:10.395Z,15.70
2018-06-23T07:25:10.310Z,15.55
2018-06-23T07:26:10.291Z,15.64
2018-06-23T07:27:10.263Z,15.55
2018-06-23T07:28:10.242Z,15.56
2018-06-23T07:29:10.220Z,15.52
2018-06-23T07:30:10.197Z,15.59
2018-06-23T07:31:10.180Z,15.74
2018-06-23T07:32:10.156Z,15.91
2018-06-23T07:33:10.128Z,16.06
2018-06-23T07:34:10.255Z,16.14
2018-06-23T07:35:10.264Z,16.04
2018-06-23T07:36:10.061Z,15.93
2018-06-23T07:37:10.040Z,15.93
2018-06-23T07:38:10.019Z,15.96
2018-06-23T07:39:09.996Z,15.96
2018-06-23T07:40:09.973Z,15.66
2018-06-23T07:41:09.955Z,15.64
2018-06-23T07:42:09.929Z,15.71
2018-06-23T07:43:09.905Z,15.74
2018-06-23T07:44:09.884Z,15.74
2018-06-23T07:45:09.866Z,15.59
2018-06-23T07:46:09.843Z,15.73
2018-06-23T07:47:09.817Z,15.73
2018-06-23T07:48:09.795Z,15.53
2018-06-23T07:49:09.775Z,15.51
2018-06-23T07:50:09.752Z,15.55
2018-06-23T07:51:09.731Z,15.53
2018-06-23T07:52:09.711Z,15.43
2018-06-23T07:53:09.682Z,15.40
2018-06-23T07:54:09.668Z,15.53
2018-06-23T07:55:09.637Z,15.49
2018-06-23T07:56:09.628Z,15.31
2018-06-23T07:57:09.796Z,15.23
2018-06-23T07:58:10.980Z,15.15
2018-06-23T07:59:09.546Z,15.16
2018-06-23T08:00:09.524Z,15.22
2018-06-23T08:01:09.499Z,15.12
2018-06-23T08:02:09.485Z,15.05
2018-06-23T08:03:09.453Z,15.01
2018-06-23T08:04:09.429Z,15.00
2018-06-23T08:05:09.411Z,14.31
2018-06-23T08:06:09.394Z,14.08
2018-06-23T08:07:09.359Z,14.12
2018-06-23T08:08:09.343Z,14.20
2018-06-23T08:09:09.310Z,14.24
2018-06-23T08:10:10.091Z,14.35
2018-06-23T08:11:09.262Z,14.24
2018-06-23T08:12:09.244Z,14.38
2018-06-23T08:13:09.228Z,14.49
2018-06-23T08:14:09.199Z,14.52
2018-06-23T08:15:09.178Z,14.67
2018-06-23T08:16:09.294Z,14.90
2018-06-23T08:17:09.120Z,14.94
2018-06-23T08:18:09.097Z,15.18
2018-06-23T08:19:09.071Z,15.25
2018-06-23T08:20:09.049Z,15.31
2018-06-23T08:21:09.022Z,15.51
2018-06-23T08:22:09.000Z,15.40
2018-06-23T08:23:08.977Z,15.15
2018-06-23T08:24:08.955Z,15.27
2018-06-23T08:25:08.935Z,15.48
2018-06-23T08:26:08.911Z,15.55
2018-06-23T08:27:08.885Z,15.59
2018-06-23T08:28:08.864Z,15.64
2018-06-23T08:29:08.838Z,15.44
2018-06-23T08:30:08.816Z,15.07
2018-06-23T08:31:08.793Z,14.87
2018-06-23T08:32:08.772Z,14.82
2018-06-23T08:33:08.748Z,14.82
2018-06-23T08:34:08.726Z,15.00
2018-06-23T08:35:08.902Z,14.98
2018-06-23T08:36:08.678Z,15.16
2018-06-23T08:37:08.656Z,15.09
2018-06-23T08:38:08.641Z,15.07
2018-06-23T08:39:08.610Z,14.97
2018-06-23T08:40:08.587Z,14.86
2018-06-23T08:41:08.563Z,14.93
2018-06-23T08:42:08.537Z,14.97
2018-06-23T08:43:08.514Z,15.00
2018-06-23T08:44:08.491Z,14.95
2018-06-23T08:45:08.467Z,15.04
2018-06-23T08:46:08.449Z,15.04
2018-06-23T08:47:08.424Z,15.16
2018-06-23T08:48:08.395Z,15.15
2018-06-23T08:49:08.378Z,15.31
2018-06-23T08:50:08.349Z,15.38
2018-06-23T08:51:08.325Z,15.23
2018-06-23T08:52:08.302Z,15.23
2018-06-23T08:53:08.276Z,15.56
2018-06-23T08:54:08.254Z,15.76
2018-06-23T08:55:08.228Z,16.25
2018-06-23T08:56:08.205Z,16.16
2018-06-23T08:57:08.185Z,16.55
2018-06-23T08:58:08.162Z,17.02
2018-06-23T08:59:08.341Z,17.55
2018-06-23T09:00:08.117Z,17.84
2018-06-23T09:01:53.174Z,18.38
2018-06-23T09:02:50.499Z,18.50
2018-06-23T09:03:50.215Z,18.25
2018-06-23T09:04:50.187Z,17.60
2018-06-23T09:05:50.165Z,17.40
2018-06-23T09:06:50.145Z,17.02
2018-06-23T09:07:50.127Z,16.73
2018-06-23T09:08:50.109Z,16.47
2018-06-23T09:09:50.092Z,16.33
2018-06-23T09:10:50.069Z,16.22
2018-06-23T09:11:50.059Z,16.33
2018-06-23T09:12:50.033Z,16.29
2018-06-23T09:13:50.010Z,16.29
2018-06-23T09:14:49.988Z,16.30
2018-06-23T09:15:49.968Z,16.01
2018-06-23T09:16:50.001Z,15.88
2018-06-23T09:17:50.129Z,15.78
2018-06-23T09:18:51.122Z,15.71
2018-06-23T09:19:50.093Z,15.91
2018-06-23T09:20:49.866Z,15.86
2018-06-23T09:21:50.048Z,15.98
2018-06-23T09:22:49.820Z,15.95
2018-06-23T09:23:49.800Z,15.89
2018-06-23T09:24:49.776Z,15.93
2018-06-23T09:25:49.768Z,16.03
2018-06-23T09:26:49.731Z,15.74
2018-06-23T09:27:49.710Z,15.73
2018-06-23T09:28:49.693Z,15.86
2018-06-23T09:29:49.667Z,15.96
2018-06-23T09:30:49.644Z,15.92
2018-06-23T09:31:49.625Z,15.92
2018-06-23T09:32:49.803Z,16.01
2018-06-23T09:33:49.580Z,16.18
2018-06-23T09:34:49.557Z,16.22
2018-06-23T09:35:49.534Z,16.40
2018-06-23T09:36:49.514Z,16.27
2018-06-23T09:37:49.496Z,15.93
2018-06-23T09:38:49.475Z,15.99
2018-06-23T09:39:49.445Z,16.17
2018-06-23T09:40:49.428Z,16.11
2018-06-23T09:41:49.404Z,16.23
2018-06-23T09:42:49.385Z,16.59
2018-06-23T09:43:49.564Z,16.72
2018-06-23T09:44:49.337Z,16.67
2018-06-23T09:45:49.392Z,16.72
2018-06-23T09:46:49.293Z,16.75
2018-06-23T09:47:49.273Z,16.77
2018-06-23T09:48:49.251Z,16.57
2018-06-23T09:49:49.233Z,16.66
2018-06-23T09:50:49.210Z,16.65
2018-06-23T09:51:49.192Z,16.75
2018-06-23T09:52:49.171Z,16.69
2018-06-23T09:53:49.149Z,16.44
2018-06-23T09:54:49.131Z,16.50
2018-06-23T09:55:49.165Z,16.54
2018-06-23T09:56:49.085Z,16.62
2018-06-23T09:57:49.065Z,16.54
2018-06-23T09:58:49.042Z,16.44
2018-06-23T09:59:49.024Z,16.41
2018-06-23T10:00:49.005Z,16.55
2018-06-23T10:01:48.983Z,16.69
2018-06-23T10:02:48.962Z,16.54
2018-06-23T10:03:48.942Z,16.33
2018-06-23T10:04:48.917Z,16.04
2018-06-23T10:05:48.895Z,16.04
2018-06-23T10:06:48.874Z,16.22
2018-06-23T10:07:48.855Z,16.30
2018-06-23T10:08:48.835Z,16.22
2018-06-23T10:09:48.819Z,16.23
2018-06-23T10:10:48.792Z,16.40
2018-06-23T10:11:48.777Z,16.47
2018-06-23T10:12:48.750Z,16.30
2018-06-23T10:13:48.729Z,16.50
2018-06-23T10:14:48.705Z,16.52
2018-06-23T10:15:48.685Z,16.16
2018-06-23T10:16:48.666Z,16.30
2018-06-23T10:17:48.646Z,16.14
2018-06-23T10:18:48.825Z,15.91
2018-06-23T10:19:48.602Z,15.91
2018-06-23T10:20:48.581Z,15.81
2018-06-23T10:21:48.767Z,15.96
2018-06-23T10:22:48.541Z,15.98
2018-06-23T10:23:48.518Z,15.92
2018-06-23T10:24:48.492Z,15.88
2018-06-23T10:25:48.471Z,16.01
2018-06-23T10:26:48.650Z,15.99
2018-06-23T10:27:48.428Z,16.01
2018-06-23T10:28:48.407Z,15.98
2018-06-23T10:29:48.384Z,15.98
2018-06-23T10:30:48.368Z,15.84
2018-06-23T10:31:48.339Z,15.68
2018-06-23T10:32:48.315Z,15.67
2018-06-23T10:33:48.294Z,15.66
2018-06-23T10:34:48.269Z,15.77
2018-06-23T10:35:48.251Z,15.71
2018-06-23T10:36:48.225Z,15.66
2018-06-23T10:37:48.203Z,15.78
2018-06-23T10:38:48.291Z,15.76
2018-06-23T10:39:48.158Z,15.76
2018-06-23T10:40:48.135Z,15.74
2018-06-23T10:41:48.114Z,15.93
2018-06-23T10:42:48.093Z,15.76
2018-06-23T10:43:48.066Z,15.66
2018-06-23T10:44:48.045Z,15.56
2018-06-23T10:45:48.019Z,15.37
2018-06-23T10:46:47.995Z,15.56
2018-06-23T10:47:47.972Z,15.66
2018-06-23T10:48:47.950Z,15.71
2018-06-23T10:49:47.929Z,15.76
2018-06-23T10:50:47.905Z,15.77
2018-06-23T10:51:47.882Z,15.77
2018-06-23T10:52:47.858Z,15.88
2018-06-23T10:53:47.834Z,15.86
2018-06-23T10:54:47.811Z,15.98
2018-06-23T10:55:47.817Z,15.95
2018-06-23T10:56:47.761Z,15.89
2018-06-23T10:57:47.744Z,15.68
2018-06-23T10:58:47.716Z,15.71
2018-06-23T10:59:47.692Z,15.66
2018-06-23T11:00:47.671Z,15.35
2018-06-23T11:01:47.649Z,15.15
2018-06-23T11:02:47.628Z,15.25
2018-06-23T11:03:47.600Z,15.33
2018-06-23T11:04:47.671Z,15.59
2018-06-23T11:05:47.552Z,15.70
2018-06-23T11:06:47.527Z,15.77
2018-06-23T11:07:47.503Z,15.86
2018-06-23T11:08:47.481Z,15.99
2018-06-23T11:09:47.457Z,16.26
2018-06-23T11:10:47.434Z,16.18
2018-06-23T11:11:47.410Z,15.91
2018-06-23T11:12:47.631Z,16.06
2018-06-23T11:13:47.366Z,15.98
2018-06-23T11:14:47.342Z,15.99
2018-06-23T11:15:47.321Z,16.08
2018-06-23T11:16:47.298Z,15.86
2018-06-23T11:17:47.278Z,15.89
2018-06-23T11:18:47.251Z,15.84
2018-06-23T11:19:47.231Z,15.68
2018-06-23T11:20:47.208Z,15.33
2018-06-23T11:21:47.187Z,14.93
2018-06-23T11:22:47.163Z,14.82
2018-06-23T11:23:47.140Z,14.72
2018-06-23T11:24:47.117Z,14.64
2018-06-23T11:25:47.096Z,14.67
2018-06-23T11:26:47.074Z,14.75
2018-06-23T11:27:47.050Z,14.61
2018-06-23T11:28:47.023Z,14.72
2018-06-23T11:29:47.000Z,14.61
2018-06-23T11:30:46.980Z,14.60
2018-06-23T11:31:46.956Z,14.57
2018-06-23T11:32:46.930Z,14.74
2018-06-23T11:33:46.908Z,14.61
2018-06-23T11:34:46.887Z,14.60
2018-06-23T11:35:46.859Z,14.60
2018-06-23T11:36:46.835Z,14.69
2018-06-23T11:37:46.812Z,14.71
2018-06-23T11:38:46.790Z,14.93
2018-06-23T11:39:46.765Z,14.72
2018-06-23T11:40:46.742Z,14.61
2018-06-23T11:41:46.721Z,14.61
2018-06-23T11:42:46.695Z,14.63
2018-06-23T11:43:46.672Z,14.66
2018-06-23T11:44:46.652Z,14.72
2018-06-23T11:45:46.627Z,14.64
2018-06-23T11:46:46.603Z,14.61
2018-06-23T11:47:46.581Z,14.59
2018-06-23T11:48:46.554Z,14.69
2018-06-23T11:49:46.532Z,14.71
2018-06-23T11:50:46.508Z,14.67
2018-06-23T11:51:46.486Z,14.74
2018-06-23T11:52:46.470Z,14.66
2018-06-23T11:53:46.441Z,14.61
2018-06-23T11:54:46.419Z,14.44
2018-06-23T11:55:46.391Z,14.52
2018-06-23T11:56:46.367Z,14.54
2018-06-23T11:57:46.343Z,14.56
2018-06-23T11:58:46.321Z,14.53
2018-06-23T11:59:46.294Z,14.56
2018-06-23T12:00:46.276Z,14.56
2018-06-23T12:01:46.284Z,14.49
2018-06-23T12:02:46.225Z,14.45
2018-06-23T12:03:46.198Z,14.56
2018-06-23T12:04:46.176Z,14.54
2018-06-23T12:05:46.151Z,14.60
2018-06-23T12:06:46.126Z,14.59
2018-06-23T12:07:46.102Z,14.79
2018-06-23T12:08:46.079Z,14.87
2018-06-23T12:09:46.053Z,14.94
2018-06-23T12:10:46.055Z,14.94
2018-06-23T12:11:46.008Z,14.97
2018-06-23T12:12:45.984Z,14.98
2018-06-23T12:13:45.960Z,15.00
2018-06-23T12:14:45.935Z,14.85
2018-06-23T12:15:45.912Z,14.69
2018-06-23T12:16:45.886Z,14.61
2018-06-23T12:17:45.863Z,14.59
2018-06-23T12:18:45.838Z,14.60
2018-06-23T12:19:45.814Z,14.53
2018-06-23T12:20:45.794Z,14.35
2018-06-23T12:21:45.770Z,14.27
2018-06-23T12:22:45.748Z,14.19
2018-06-23T12:23:45.723Z,14.09
2018-06-23T12:24:45.696Z,14.06
2018-06-23T12:25:45.673Z,14.17
2018-06-23T12:26:45.648Z,14.24
2018-06-23T12:27:45.627Z,14.24
2018-06-23T12:28:45.601Z,14.29
2018-06-23T12:29:45.602Z,14.19
2018-06-23T12:30:45.565Z,14.41
2018-06-23T12:31:45.528Z,14.42
2018-06-23T12:32:45.506Z,14.45
2018-06-23T12:33:45.483Z,14.35
2018-06-23T12:34:45.457Z,14.53
2018-06-23T12:35:45.433Z,14.54
2018-06-23T12:36:45.413Z,14.48
2018-06-23T12:37:45.383Z,14.53
2018-06-23T12:38:45.358Z,14.49
2018-06-23T12:39:45.335Z,14.48
2018-06-23T12:40:45.312Z,14.44
2018-06-23T12:41:45.313Z,14.38
2018-06-23T12:42:45.265Z,14.21
2018-06-23T12:43:45.241Z,14.24
2018-06-23T12:44:45.217Z,14.20
2018-06-23T12:45:45.193Z,14.11
2018-06-23T12:46:45.168Z,14.21
2018-06-23T12:47:45.144Z,14.27
2018-06-23T12:48:45.118Z,14.29
2018-06-23T12:49:45.095Z,14.42
2018-06-23T12:50:45.072Z,14.41
2018-06-23T12:51:45.047Z,14.35
2018-06-23T12:52:45.024Z,14.27
2018-06-23T12:53:44.998Z,14.12
2018-06-23T12:54:44.973Z,14.09